Flight Track Log - Related Links

Times and Time Zones

All times are in EDT time to prevent confusion due to time zone crossing. See the EGF4039 flight status page for this flight to view local times or setup timezone preferences in your user account.

Time Position Orientation Groundspeed Altitude Reporting Facility
EDT Latitude Longitude Course Direction KTS MPH feet Rate Location/Type
Tue 17:38:36 42.5314 -92.3506 90° East 176 203 2,700  Level Chicago Center
Tue 17:39:38 42.5389 -92.2486 84° East 244 281 5,400 2,468 Climbing Chicago Center
Tue 17:40:40 42.5364 -92.1558 92° East 246 283 7,800 2,081 Climbing Chicago Center
Tue 17:41:42 42.5281 -92.0567 96° East 255 293 9,700 1,935 Climbing Chicago Center
Tue 17:42:00 42.4916 -91.7740 97° East  Level FlightAware
Tue 17:42:44 42.5175 -91.9458 97° East 286 329 11,800  Level Chicago Center
Tue 17:43:00 42.4833 -91.6483 90° East  Level FlightAware
Tue 17:43:46 42.5056 -91.8086 97° East 308 354 14,100  Level Chicago Center
Tue 17:44:48 42.4953 -91.6889 97° East 325 374 15,900 1,694 Climbing Chicago Center
Tue 17:45:50 42.4825 -91.5656 98° East 335 386 17,600 1,694 Climbing Chicago Center
Tue 17:46:52 42.4717 -91.4353 96° East 351 404 19,400 1,839 Climbing Chicago Center
Tue 17:47:54 42.4794 -91.2744 86° East 364 419 21,400 1,584 Climbing Chicago Center
Tue 17:48:57 42.4861 -91.1331 86° East 378 435 22,700 768 Climbing Chicago Center
Tue 17:49:59 42.4933 -90.9786 86° East 412 474 23,000 145 Climbing Chicago Center
Tue 17:51:01 42.4994 -90.8092 87° East 453 521 23,000  Level Chicago Center
Tue 17:52:03 42.5067 -90.6331 87° East 472 543 23,000  Level Chicago Center
Tue 17:53:05 42.5147 -90.4178 87° East 480 552 23,000  Level Chicago Center
Tue 17:54:07 42.5211 -90.2411 87° East 475 547 23,000  Level Chicago Center
Tue 17:55:09 42.5275 -90.0642 87° East 475 547 23,000 -484 Level Chicago Center
Tue 17:56:11 42.5331 -89.8672 88° East 462 532 22,000 -1,113 Descending Chicago Center
Tue 17:57:13 42.5386 -89.7142 87° East 414 476 20,700 -1,403 Descending Chicago Center
Tue 17:58:15 42.5439 -89.5542 87° East 422 486 19,100 -1,548 Descending Chicago Center
Tue 17:59:17 42.5486 -89.3983 88° East 418 481 17,500 -1,728 Descending Chicago Center
Tue 18:00:20 42.5542 -89.2236 87° East 401 461 15,500 -1,824 Descending Chicago Center
Tue 18:01:22 42.5522 -89.0808 91° East 390 449 13,700 -1,645 Descending Chicago Center
Tue 18:02:24 42.5117 -88.9444 112° Southeast 391 450 12,100 -1,403 Descending Chicago Center
Tue 18:03:26 42.4703 -88.8153 113° Southeast 382 440 10,800 -1,016 Descending Chicago Center
Tue 18:04:28 42.4314 -88.6861 112° Southeast 375 432 10,000 -387 Descending Chicago Center
Tue 18:05:30 42.3867 -88.5389 112° Southeast 368 423 10,000  Level Chicago Center
Tue 18:06:32 42.3494 -88.4142 112° Southeast 362 417 10,000 -97 Level Chicago Center
Tue 18:07:34 42.2892 -88.2997 125° Southeast 352 405 9,800 -726 Descending Chicago Center
Tue 18:08:36 42.2325 -88.2092 130° Southeast 326 375 8,500 -1,210 Descending Chicago Center
Tue 18:09:38 42.1728 -88.1322 136° Southeast 305 351 7,300 -726 Descending Chicago Center
Tue 18:10:40 42.0958 -88.0958 161° South 297 342 7,000 -145 Descending Chicago Center
Tue 18:11:42 42.0208 -88.0603 161° South 289 333 7,000  Level Chicago Center
Tue 18:12:55 41.9333 -87.9667 141° Southeast 298 343 7,000  Level Chicago TRACON
Tue 18:14:01 41.8833 -87.8833 129° Southeast 273 314 7,000 -105 Level Chicago TRACON
Tue 18:14:49 41.8886 -87.8108 84° East 245 282 6,800 -250 Descending Chicago Center

Login

Don't have an account? Register now (free) for customized features, flight alerts, and more!